Friday, October 19, 2018, 10:04 PM GMT
Back to Local

CXMY, Malay Falls , N. S.

Location: , , Canada Lat: 44.983
Local Time: 10:04 PM GMT (22:04 GMT) Lon: -62.483
Time Zone: GMT Elev: 131 ft

Show me the last for .
Show Coded

Time T Td Feel RH Dir Speed Gust Alt SLP Vis Weather Sky Remarks
2018-10-19 21:00 39 27 - 62 - - - - - 0 None
2018-10-19 20:00 41 21 - 44 - - - - - 0 None
2018-10-19 19:00 40 21 - 45 - - - - - 0 None
2018-10-19 18:00 43 20 - 39 - - - - - 0 None
2018-10-19 17:00 43 19 - 37 - - - - - 0 None
2018-10-19 16:00 40 15 - 35 - - - - - 0 None
2018-10-19 15:00 38 21 - 49 - - - - - 0 None
2018-10-19 14:00 37 20 - 50 - - - - - 0 None
2018-10-19 13:00 34 22 - 60 - - - - - 0 None
2018-10-19 12:00 31 24 - 73 - - - - - 0 None
2018-10-19 11:00 28 22 - 78 - - - - - 0 None
2018-10-19 10:00 28 22 - 76 - - - - - 0 None
2018-10-19 09:00 29 22 - 76 - - - - - 0 None
2018-10-19 08:00 31 24 - 74 - - - - - 0 None
2018-10-19 07:00 31 22 - 70 - - - - - 0 None
2018-10-19 06:00 31 21 - 64 - - - - - 0 None
2018-10-19 05:00 31 21 - 65 - - - - - 0 None
2018-10-19 04:00 33 22 - 64 - - - - - 0 None
2018-10-19 03:00 34 24 - 65 - - - - - 0 None
2018-10-19 02:00 35 24 - 64 - - - - - 0 None
2018-10-19 01:00 36 24 - 61 - - - - - 0 None
2018-10-19 00:00 36 25 - 62 - - - - - 0 None
2018-10-18 23:00 35 27 - 70 - - - - - 0 None

Support USWX by starting your Amazon purchase here.